Saturday, October 25, 2014
16:03 UTC
  |  Log In   |  Register Free
Airport Search:

Tyler Pounds Regional Airport
(KTYR)

FAA data valid effective September 18, 2014 - November 13, 2014 (unless otherwise noted).

 
 
 
 
 
 
 
 
 
 
 
 
 
 

Current Aviation Weather for Tyler Pounds Regional Airport (KTYR)

The most recent METAR observation for KTYR was updated at: 1520
METAR Summary (Translated METAR)
KTYR
251453Z 23006KT 10SM CLR 22/15 A3018 RMK AO2 SLP215 T02170150 53013
KJDD
251455Z AUTO 21006KT 10SM CLR 21/16 A3018 RMK AO2
(23.8 nm NW from KTYR)
KF44
251455Z AUTO 18003KT 10SM CLR 20/15 A3018 RMK AO2
(24.5 nm SW from KTYR)
TAF Summary (Translated TAF)
KTYR
251120Z 2512/2612 19005KT P6SM SKC FM251500 22007KT P6SM SKC FM251800 22007KT P6SM FEW050 FM260000 17004KT P6SM SKC
  Airport Weather Conditions for KTYR

 Current Weather at TYR
71° F
Fair
Southwest winds at 6.9 mph
TYR NOAA Radar

Pressure: 30.18 in
Humidity: 66%
Wind: Southwest at 6.9 MPH (6 KT)
Dew Point: 59.0°F
Visibility: 10.00 mi


Airport Weather Forecast for KTYR

Translated METAR and TAF for KTYR
Translated METAR for KTYR (1558 UTC 25 October 2014)
found at http://aviationweather.gov/adds/metars/
 
METAR text: KTYR 251553Z 23009KT 10SM CLR 24/15 A3018 RMK AO2 SLP214 T02390150
Conditions at: KTYR (TYLER , TX, US) observed 1553 UTC 25 October 2014
Temperature: 23.9°C (75°F)
Dewpoint: 15.0°C (59°F) [RH = 57%]
Pressure (altimeter): 30.18 inches Hg (1022.1 mb)
[Sea-level pressure: 1021.4 mb]
Winds: from the SW (230 degrees) at 10 MPH (9 knots; 4.7 m/s)
Visibility: 10 or more miles (16+ km)
Ceiling: at least 12,000 feet AGL
Clouds: sky clear below 12,000 feet AGL
Weather: no significant weather observed at this time
Translated TAF for KTYR
Forecast for: KTYR (TYLER , TX, US)
TAF Text: KTYR 251120Z 2512/2612 19005KT P6SM SKC
Forecast period: 1200 to 1500 UTC 25 October 2014
Forecast type: FROM: standard forecast or significant change
Winds: from the S (190 degrees) at 6 MPH (5 knots; 2.6 m/s)
Visibility: 6 or more miles (10+ km)
Clouds: clear skies
Weather: no significant weather forecast for this period
TAF Text: FM251500 22007KT P6SM SKC
Forecast period: 1500 to 1800 UTC 25 October 2014
Forecast type: FROM: standard forecast or significant change
Winds: from the SW (220 degrees) at 8 MPH (7 knots; 3.6 m/s)
Visibility: 6 or more miles (10+ km)
Clouds: clear skies
Weather: no significant weather forecast for this period
TAF Text: FM251800 22007KT P6SM FEW050
Forecast period: 1800 UTC 25 October 2014 to 0000 UTC 26 October 2014
Forecast type: FROM: standard forecast or significant change
Winds: from the SW (220 degrees) at 8 MPH (7 knots; 3.6 m/s)
Visibility: 6 or more miles (10+ km)
Clouds: few clouds at 5000 feet AGL
Weather: no significant weather forecast for this period
TAF Text: FM260000 17004KT P6SM SKC
Forecast period: 0000 to 1200 UTC 26 October 2014
Forecast type: FROM: standard forecast or significant change
Winds: from the S (170 degrees) at 5 MPH (4 knots; 2.1 m/s)
Visibility: 6 or more miles (10+ km)
Clouds: clear skies
Weather: no significant weather forecast for this period

Find All Airport Services Find A Hotel Find A Rental Car Find A Golf Course Find A Restaurant $100 Hamburger



FBO's on the Field
FBO Company Facility Photos Services Transportation Aviation Fuel Prices: Prices include tax
Catering Weather Repair Courtesy Rental Type 100LL JetA JetA+ MOGAS 8087
 
Jet Center of Tyler

Currently rated 5 by 1 person
FS: Phillips 66
Last Updated: Oct-21
Login to update fuel prices
SS:
Contact Jet Center of TylerMore FBO Information
 
Johnson Aviation, Inc

Currently rated 4.1 by 2 people
FS:Avfuel
Last Updated: Oct-06
Login to update fuel prices
SS:
Contact Johnson Aviation, IncMore FBO Information
 
Add another FBO Facility Photos Catering Weather Repair Courtesy Rental Type 100LL JetA JetA+ MOGAS 8087
Services Transportation Aviation Fuel Prices: Prices include tax


model-print
model-print
model-print
model-print